sensor_id;sensor_type;location;lat;lon;timestamp;P1;durP1;ratioP1;P2;durP2;ratioP2
31464;SDS011;18089;47.428;15.006;2023-01-13T00:01:53;58.23;;;32.40;;
31464;SDS011;18089;47.428;15.006;2023-01-13T00:04:27;45.77;;;29.70;;
31464;SDS011;18089;47.428;15.006;2023-01-13T00:06:59;46.30;;;28.50;;
31464;SDS011;18089;47.428;15.006;2023-01-13T00:09:31;34.97;;;24.70;;
31464;SDS011;18089;47.428;15.006;2023-01-13T00:12:03;40.03;;;26.53;;
31464;SDS011;18089;47.428;15.006;2023-01-13T00:14:36;41.47;;;27.00;;
31464;SDS011;18089;47.428;15.006;2023-01-13T00:17:08;42.43;;;28.10;;
31464;SDS011;18089;47.428;15.006;2023-01-13T00:19:41;37.40;;;25.90;;
31464;SDS011;18089;47.428;15.006;2023-01-13T00:22:13;34.47;;;25.30;;
31464;SDS011;18089;47.428;15.006;2023-01-13T00:24:45;39.50;;;27.43;;
31464;SDS011;18089;47.428;15.006;2023-01-13T00:27:17;41.73;;;27.30;;
31464;SDS011;18089;47.428;15.006;2023-01-13T00:29:49;49.57;;;29.20;;
31464;SDS011;18089;47.428;15.006;2023-01-13T00:32:21;46.93;;;28.33;;
31464;SDS011;18089;47.428;15.006;2023-01-13T00:34:55;36.07;;;24.57;;
31464;SDS011;18089;47.428;15.006;2023-01-13T00:37:27;38.30;;;25.87;;
31464;SDS011;18089;47.428;15.006;2023-01-13T00:40:00;38.47;;;25.10;;
31464;SDS011;18089;47.428;15.006;2023-01-13T00:42:32;34.47;;;23.10;;
31464;SDS011;18089;47.428;15.006;2023-01-13T00:45:21;29.27;;;22.13;;
31464;SDS011;18089;47.428;15.006;2023-01-13T00:47:53;34.97;;;22.70;;
31464;SDS011;18089;47.428;15.006;2023-01-13T00:50:26;29.67;;;21.17;;
31464;SDS011;18089;47.428;15.006;2023-01-13T00:52:59;30.27;;;22.40;;
31464;SDS011;18089;47.428;15.006;2023-01-13T00:55:31;28.87;;;20.63;;
31464;SDS011;18089;47.428;15.006;2023-01-13T00:58:03;29.37;;;21.63;;
31464;SDS011;18089;47.428;15.006;2023-01-13T01:00:35;24.70;;;20.27;;
31464;SDS011;18089;47.428;15.006;2023-01-13T01:03:07;26.73;;;21.03;;
31464;SDS011;18089;47.428;15.006;2023-01-13T01:05:42;26.53;;;21.23;;
31464;SDS011;18089;47.428;15.006;2023-01-13T01:08:14;24.97;;;20.17;;
31464;SDS011;18089;47.428;15.006;2023-01-13T01:10:46;27.20;;;20.97;;
31464;SDS011;18089;47.428;15.006;2023-01-13T01:13:18;23.67;;;19.50;;
31464;SDS011;18089;47.428;15.006;2023-01-13T01:15:50;25.70;;;19.53;;
31464;SDS011;18089;47.428;15.006;2023-01-13T01:18:22;26.07;;;20.67;;
31464;SDS011;18089;47.428;15.006;2023-01-13T01:20:59;24.77;;;19.77;;
31464;SDS011;18089;47.428;15.006;2023-01-13T01:23:32;23.90;;;19.57;;
31464;SDS011;18089;47.428;15.006;2023-01-13T01:26:05;24.17;;;19.53;;
31464;SDS011;18089;47.428;15.006;2023-01-13T01:28:37;23.47;;;19.17;;
31464;SDS011;18089;47.428;15.006;2023-01-13T01:31:11;28.20;;;21.20;;
31464;SDS011;18089;47.428;15.006;2023-01-13T01:33:44;23.27;;;20.70;;
31464;SDS011;18089;47.428;15.006;2023-01-13T01:36:19;23.63;;;19.10;;
31464;SDS011;18089;47.428;15.006;2023-01-13T01:38:52;26.77;;;19.70;;
31464;SDS011;18089;47.428;15.006;2023-01-13T01:41:26;25.23;;;19.70;;
31464;SDS011;18089;47.428;15.006;2023-01-13T01:44:00;22.63;;;19.30;;
31464;SDS011;18089;47.428;15.006;2023-01-13T01:46:36;23.63;;;18.87;;
31464;SDS011;18089;47.428;15.006;2023-01-13T01:49:10;22.73;;;19.00;;
31464;SDS011;18089;47.428;15.006;2023-01-13T01:51:47;21.13;;;18.93;;
31464;SDS011;18089;47.428;15.006;2023-01-13T01:54:21;21.27;;;17.77;;
31464;SDS011;18089;47.428;15.006;2023-01-13T01:56:54;23.50;;;18.53;;
31464;SDS011;18089;47.428;15.006;2023-01-13T01:59:26;22.00;;;18.10;;
31464;SDS011;18089;47.428;15.006;2023-01-13T02:02:00;21.77;;;18.33;;
31464;SDS011;18089;47.428;15.006;2023-01-13T02:04:33;21.90;;;17.97;;
31464;SDS011;18089;47.428;15.006;2023-01-13T02:07:08;21.00;;;18.03;;
31464;SDS011;18089;47.428;15.006;2023-01-13T02:09:40;20.67;;;18.43;;
31464;SDS011;18089;47.428;15.006;2023-01-13T02:12:12;20.73;;;17.97;;
31464;SDS011;18089;47.428;15.006;2023-01-13T02:14:59;24.07;;;18.50;;
31464;SDS011;18089;47.428;15.006;2023-01-13T02:17:47;21.23;;;18.93;;
31464;SDS011;18089;47.428;15.006;2023-01-13T02:23:56;27.37;;;19.03;;
31464;SDS011;18089;47.428;15.006;2023-01-13T02:30:04;22.10;;;18.83;;
31464;SDS011;18089;47.428;15.006;2023-01-13T02:33:08;22.93;;;18.90;;
31464;SDS011;18089;47.428;15.006;2023-01-13T02:35:48;25.57;;;18.97;;
31464;SDS011;18089;47.428;15.006;2023-01-13T02:38:22;23.33;;;18.70;;
31464;SDS011;18089;47.428;15.006;2023-01-13T02:40:59;20.27;;;18.03;;
31464;SDS011;18089;47.428;15.006;2023-01-13T02:43:53;22.47;;;18.13;;
31464;SDS011;18089;47.428;15.006;2023-01-13T02:46:40;21.40;;;18.40;;
31464;SDS011;18089;47.428;15.006;2023-01-13T02:49:19;27.13;;;19.43;;
31464;SDS011;18089;47.428;15.006;2023-01-13T02:51:56;20.90;;;18.13;;
31464;SDS011;18089;47.428;15.006;2023-01-13T02:54:30;22.20;;;17.57;;
31464;SDS011;18089;47.428;15.006;2023-01-13T02:57:04;21.20;;;18.50;;
31464;SDS011;18089;47.428;15.006;2023-01-13T02:59:37;21.40;;;18.13;;
31464;SDS011;18089;47.428;15.006;2023-01-13T03:02:13;22.83;;;18.40;;
31464;SDS011;18089;47.428;15.006;2023-01-13T03:04:48;23.23;;;17.73;;
31464;SDS011;18089;47.428;15.006;2023-01-13T03:10:26;23.57;;;18.50;;
31464;SDS011;18089;47.428;15.006;2023-01-13T03:13:17;19.93;;;17.77;;
31464;SDS011;18089;47.428;15.006;2023-01-13T03:15:57;21.57;;;18.73;;
31464;SDS011;18089;47.428;15.006;2023-01-13T03:18:42;20.97;;;18.63;;
31464;SDS011;18089;47.428;15.006;2023-01-13T03:21:19;21.53;;;18.57;;
31464;SDS011;18089;47.428;15.006;2023-01-13T03:23:56;22.17;;;18.17;;
31464;SDS011;18089;47.428;15.006;2023-01-13T03:26:32;23.47;;;18.77;;
31464;SDS011;18089;47.428;15.006;2023-01-13T03:29:10;21.77;;;19.43;;
31464;SDS011;18089;47.428;15.006;2023-01-13T03:31:46;23.40;;;18.93;;
31464;SDS011;18089;47.428;15.006;2023-01-13T03:34:25;23.50;;;18.83;;
31464;SDS011;18089;47.428;15.006;2023-01-13T03:37:01;22.00;;;19.50;;
31464;SDS011;18089;47.428;15.006;2023-01-13T03:39:35;22.07;;;18.60;;
31464;SDS011;18089;47.428;15.006;2023-01-13T03:42:10;20.77;;;18.57;;
31464;SDS011;18089;47.428;15.006;2023-01-13T03:44:46;22.70;;;18.93;;
31464;SDS011;18089;47.428;15.006;2023-01-13T03:47:20;22.83;;;19.03;;
31464;SDS011;18089;47.428;15.006;2023-01-13T03:49:56;25.93;;;19.57;;
31464;SDS011;18089;47.428;15.006;2023-01-13T03:52:32;23.23;;;19.20;;
31464;SDS011;18089;47.428;15.006;2023-01-13T03:55:05;21.17;;;19.03;;
31464;SDS011;18089;47.428;15.006;2023-01-13T03:57:41;24.03;;;20.77;;
31464;SDS011;18089;47.428;15.006;2023-01-13T04:00:15;20.57;;;18.37;;
31464;SDS011;18089;47.428;15.006;2023-01-13T04:02:49;20.20;;;18.10;;
31464;SDS011;18089;47.428;15.006;2023-01-13T04:05:24;24.40;;;19.70;;
31464;SDS011;18089;47.428;15.006;2023-01-13T04:07:59;24.23;;;20.03;;
31464;SDS011;18089;47.428;15.006;2023-01-13T04:10:35;20.97;;;18.43;;
31464;SDS011;18089;47.428;15.006;2023-01-13T04:13:11;21.70;;;19.50;;
31464;SDS011;18089;47.428;15.006;2023-01-13T04:15:44;22.63;;;18.40;;
31464;SDS011;18089;47.428;15.006;2023-01-13T04:18:17;23.00;;;20.10;;
31464;SDS011;18089;47.428;15.006;2023-01-13T04:20:54;24.80;;;18.77;;
31464;SDS011;18089;47.428;15.006;2023-01-13T04:23:27;20.47;;;18.27;;
31464;SDS011;18089;47.428;15.006;2023-01-13T04:25:59;21.60;;;18.20;;
31464;SDS011;18089;47.428;15.006;2023-01-13T04:28:31;22.53;;;18.43;;
31464;SDS011;18089;47.428;15.006;2023-01-13T04:31:04;21.27;;;18.77;;
31464;SDS011;18089;47.428;15.006;2023-01-13T04:33:36;19.40;;;17.40;;
31464;SDS011;18089;47.428;15.006;2023-01-13T04:36:09;20.47;;;17.70;;
31464;SDS011;18089;47.428;15.006;2023-01-13T04:38:41;21.93;;;18.27;;
31464;SDS011;18089;47.428;15.006;2023-01-13T04:41:13;20.70;;;17.97;;
31464;SDS011;18089;47.428;15.006;2023-01-13T04:43:45;19.93;;;17.40;;
31464;SDS011;18089;47.428;15.006;2023-01-13T04:46:17;19.47;;;16.83;;
31464;SDS011;18089;47.428;15.006;2023-01-13T04:48:49;19.27;;;17.27;;
31464;SDS011;18089;47.428;15.006;2023-01-13T04:51:23;23.47;;;18.50;;
31464;SDS011;18089;47.428;15.006;2023-01-13T04:53:55;18.90;;;17.00;;
31464;SDS011;18089;47.428;15.006;2023-01-13T04:56:27;17.87;;;16.13;;
31464;SDS011;18089;47.428;15.006;2023-01-13T04:58:59;17.57;;;15.87;;
31464;SDS011;18089;47.428;15.006;2023-01-13T05:01:31;19.10;;;17.10;;
31464;SDS011;18089;47.428;15.006;2023-01-13T05:04:04;16.57;;;15.17;;
31464;SDS011;18089;47.428;15.006;2023-01-13T05:06:38;17.53;;;15.87;;
31464;SDS011;18089;47.428;15.006;2023-01-13T05:09:10;17.03;;;15.43;;
31464;SDS011;18089;47.428;15.006;2023-01-13T05:11:44;17.30;;;15.50;;
31464;SDS011;18089;47.428;15.006;2023-01-13T05:14:34;17.47;;;15.57;;
31464;SDS011;18089;47.428;15.006;2023-01-13T05:17:23;16.63;;;15.13;;
31464;SDS011;18089;47.428;15.006;2023-01-13T05:19:56;17.73;;;15.80;;
31464;SDS011;18089;47.428;15.006;2023-01-13T05:22:29;17.40;;;15.80;;
31464;SDS011;18089;47.428;15.006;2023-01-13T05:25:18;17.30;;;15.57;;
31464;SDS011;18089;47.428;15.006;2023-01-13T05:27:55;17.33;;;15.53;;
31464;SDS011;18089;47.428;15.006;2023-01-13T05:30:29;18.00;;;16.30;;
31464;SDS011;18089;47.428;15.006;2023-01-13T05:33:03;18.30;;;16.40;;
31464;SDS011;18089;47.428;15.006;2023-01-13T05:35:36;18.97;;;16.70;;
31464;SDS011;18089;47.428;15.006;2023-01-13T05:38:10;19.00;;;17.23;;
31464;SDS011;18089;47.428;15.006;2023-01-13T05:40:43;19.47;;;17.57;;
31464;SDS011;18089;47.428;15.006;2023-01-13T05:43:33;19.23;;;17.30;;
31464;SDS011;18089;47.428;15.006;2023-01-13T05:46:05;20.27;;;18.17;;
31464;SDS011;18089;47.428;15.006;2023-01-13T05:48:39;19.63;;;17.57;;
31464;SDS011;18089;47.428;15.006;2023-01-13T05:51:12;20.20;;;18.13;;
31464;SDS011;18089;47.428;15.006;2023-01-13T05:53:45;19.60;;;17.60;;
31464;SDS011;18089;47.428;15.006;2023-01-13T05:56:17;20.87;;;18.10;;
31464;SDS011;18089;47.428;15.006;2023-01-13T05:58:49;19.73;;;17.73;;
31464;SDS011;18089;47.428;15.006;2023-01-13T06:01:21;21.17;;;18.60;;
31464;SDS011;18089;47.428;15.006;2023-01-13T06:03:53;20.33;;;18.23;;
31464;SDS011;18089;47.428;15.006;2023-01-13T06:06:25;20.13;;;18.07;;
31464;SDS011;18089;47.428;15.006;2023-01-13T06:08:59;19.37;;;17.37;;
31464;SDS011;18089;47.428;15.006;2023-01-13T06:11:31;19.77;;;17.73;;
31464;SDS011;18089;47.428;15.006;2023-01-13T06:14:03;20.47;;;17.27;;
31464;SDS011;18089;47.428;15.006;2023-01-13T06:16:35;19.37;;;17.27;;
31464;SDS011;18089;47.428;15.006;2023-01-13T06:19:07;20.90;;;17.70;;
31464;SDS011;18089;47.428;15.006;2023-01-13T06:21:42;23.57;;;18.60;;
31464;SDS011;18089;47.428;15.006;2023-01-13T06:24:15;19.57;;;17.57;;
31464;SDS011;18089;47.428;15.006;2023-01-13T06:26:47;23.17;;;18.67;;
31464;SDS011;18089;47.428;15.006;2023-01-13T06:29:19;27.07;;;20.53;;
31464;SDS011;18089;47.428;15.006;2023-01-13T06:31:51;28.50;;;20.37;;
31464;SDS011;18089;47.428;15.006;2023-01-13T06:34:23;30.53;;;21.03;;
31464;SDS011;18089;47.428;15.006;2023-01-13T06:36:56;26.00;;;20.13;;
31464;SDS011;18089;47.428;15.006;2023-01-13T06:39:29;26.50;;;20.57;;
31464;SDS011;18089;47.428;15.006;2023-01-13T06:42:02;32.40;;;21.20;;
31464;SDS011;18089;47.428;15.006;2023-01-13T06:44:52;33.37;;;21.90;;
31464;SDS011;18089;47.428;15.006;2023-01-13T06:47:24;28.97;;;22.10;;
31464;SDS011;18089;47.428;15.006;2023-01-13T06:49:56;33.90;;;23.13;;
31464;SDS011;18089;47.428;15.006;2023-01-13T06:52:29;37.10;;;24.93;;
31464;SDS011;18089;47.428;15.006;2023-01-13T06:55:02;42.30;;;25.90;;
31464;SDS011;18089;47.428;15.006;2023-01-13T06:57:36;33.90;;;23.53;;
31464;SDS011;18089;47.428;15.006;2023-01-13T07:00:20;36.73;;;24.70;;
31464;SDS011;18089;47.428;15.006;2023-01-13T07:02:59;35.30;;;24.27;;
31464;SDS011;18089;47.428;15.006;2023-01-13T07:05:36;30.63;;;23.80;;
31464;SDS011;18089;47.428;15.006;2023-01-13T07:08:08;34.23;;;23.97;;
31464;SDS011;18089;47.428;15.006;2023-01-13T07:10:42;35.20;;;22.97;;
31464;SDS011;18089;47.428;15.006;2023-01-13T07:13:14;35.13;;;23.77;;
31464;SDS011;18089;47.428;15.006;2023-01-13T07:16:04;33.27;;;24.23;;
31464;SDS011;18089;47.428;15.006;2023-01-13T07:18:37;34.60;;;24.57;;
31464;SDS011;18089;47.428;15.006;2023-01-13T07:21:09;38.00;;;26.30;;
31464;SDS011;18089;47.428;15.006;2023-01-13T07:23:42;35.20;;;27.10;;
31464;SDS011;18089;47.428;15.006;2023-01-13T07:26:16;40.30;;;28.67;;
31464;SDS011;18089;47.428;15.006;2023-01-13T07:28:48;38.47;;;27.57;;
31464;SDS011;18089;47.428;15.006;2023-01-13T07:31:20;42.47;;;29.13;;
31464;SDS011;18089;47.428;15.006;2023-01-13T07:33:52;40.03;;;29.10;;
31464;SDS011;18089;47.428;15.006;2023-01-13T07:36:24;43.30;;;28.53;;
31464;SDS011;18089;47.428;15.006;2023-01-13T07:38:56;51.10;;;32.47;;
31464;SDS011;18089;47.428;15.006;2023-01-13T07:41:29;53.80;;;32.73;;
31464;SDS011;18089;47.428;15.006;2023-01-13T07:44:19;53.67;;;32.20;;
31464;SDS011;18089;47.428;15.006;2023-01-13T07:46:51;53.70;;;33.60;;
31464;SDS011;18089;47.428;15.006;2023-01-13T07:49:23;55.47;;;35.73;;
31464;SDS011;18089;47.428;15.006;2023-01-13T07:51:55;58.17;;;34.90;;
31464;SDS011;18089;47.428;15.006;2023-01-13T07:54:27;49.40;;;33.57;;
31464;SDS011;18089;47.428;15.006;2023-01-13T07:57:00;62.03;;;35.73;;
31464;SDS011;18089;47.428;15.006;2023-01-13T07:59:32;53.13;;;31.90;;
31464;SDS011;18089;47.428;15.006;2023-01-13T08:02:04;48.23;;;31.10;;
31464;SDS011;18089;47.428;15.006;2023-01-13T08:04:36;42.63;;;29.33;;
31464;SDS011;18089;47.428;15.006;2023-01-13T08:07:08;46.30;;;30.87;;
31464;SDS011;18089;47.428;15.006;2023-01-13T08:09:40;47.30;;;28.97;;
31464;SDS011;18089;47.428;15.006;2023-01-13T08:12:14;58.90;;;33.53;;
31464;SDS011;18089;47.428;15.006;2023-01-13T08:15:03;57.77;;;33.83;;
31464;SDS011;18089;47.428;15.006;2023-01-13T08:17:39;50.67;;;32.17;;
31464;SDS011;18089;47.428;15.006;2023-01-13T08:20:11;54.00;;;32.50;;
31464;SDS011;18089;47.428;15.006;2023-01-13T08:22:43;61.20;;;36.00;;
31464;SDS011;18089;47.428;15.006;2023-01-13T08:25:15;37.87;;;29.87;;
31464;SDS011;18089;47.428;15.006;2023-01-13T08:27:49;42.70;;;29.37;;
31464;SDS011;18089;47.428;15.006;2023-01-13T08:30:21;36.17;;;28.53;;
31464;SDS011;18089;47.428;15.006;2023-01-13T08:32:53;39.50;;;29.93;;
31464;SDS011;18089;47.428;15.006;2023-01-13T08:35:25;42.50;;;28.97;;
31464;SDS011;18089;47.428;15.006;2023-01-13T08:37:57;38.37;;;29.93;;
31464;SDS011;18089;47.428;15.006;2023-01-13T08:40:29;38.17;;;28.63;;
31464;SDS011;18089;47.428;15.006;2023-01-13T08:43:03;39.13;;;28.33;;
31464;SDS011;18089;47.428;15.006;2023-01-13T08:45:35;38.03;;;27.83;;
31464;SDS011;18089;47.428;15.006;2023-01-13T08:48:07;35.97;;;27.83;;
31464;SDS011;18089;47.428;15.006;2023-01-13T08:50:39;43.93;;;29.17;;
31464;SDS011;18089;47.428;15.006;2023-01-13T08:53:11;44.63;;;30.93;;
31464;SDS011;18089;47.428;15.006;2023-01-13T08:55:43;45.43;;;30.27;;
31464;SDS011;18089;47.428;15.006;2023-01-13T08:58:17;44.23;;;28.83;;
31464;SDS011;18089;47.428;15.006;2023-01-13T09:00:49;35.97;;;25.20;;
31464;SDS011;18089;47.428;15.006;2023-01-13T09:03:21;33.60;;;24.23;;
31464;SDS011;18089;47.428;15.006;2023-01-13T09:05:53;34.17;;;25.07;;
31464;SDS011;18089;47.428;15.006;2023-01-13T09:08:25;33.47;;;25.57;;
31464;SDS011;18089;47.428;15.006;2023-01-13T09:10:57;29.00;;;22.87;;
31464;SDS011;18089;47.428;15.006;2023-01-13T09:13:30;32.83;;;23.00;;
31464;SDS011;18089;47.428;15.006;2023-01-13T09:16:01;28.30;;;21.37;;
31464;SDS011;18089;47.428;15.006;2023-01-13T09:18:33;26.33;;;21.73;;
31464;SDS011;18089;47.428;15.006;2023-01-13T09:21:05;28.20;;;21.93;;
31464;SDS011;18089;47.428;15.006;2023-01-13T09:23:38;26.57;;;21.43;;
31464;SDS011;18089;47.428;15.006;2023-01-13T09:26:10;32.60;;;24.50;;
31464;SDS011;18089;47.428;15.006;2023-01-13T09:28:44;28.23;;;22.40;;
31464;SDS011;18089;47.428;15.006;2023-01-13T09:31:16;29.00;;;22.53;;
31464;SDS011;18089;47.428;15.006;2023-01-13T09:33:48;25.53;;;20.90;;
31464;SDS011;18089;47.428;15.006;2023-01-13T09:36:38;27.60;;;21.13;;
31464;SDS011;18089;47.428;15.006;2023-01-13T09:39:10;28.93;;;21.23;;
31464;SDS011;18089;47.428;15.006;2023-01-13T09:41:43;27.47;;;22.37;;
31464;SDS011;18089;47.428;15.006;2023-01-13T09:44:38;27.60;;;22.20;;
31464;SDS011;18089;47.428;15.006;2023-01-13T09:47:16;28.97;;;22.87;;
31464;SDS011;18089;47.428;15.006;2023-01-13T09:49:50;27.30;;;21.43;;
31464;SDS011;18089;47.428;15.006;2023-01-13T09:52:22;25.50;;;21.83;;
31464;SDS011;18089;47.428;15.006;2023-01-13T09:54:59;26.07;;;21.23;;
31464;SDS011;18089;47.428;15.006;2023-01-13T09:57:35;26.50;;;21.00;;
31464;SDS011;18089;47.428;15.006;2023-01-13T10:00:11;25.87;;;19.67;;
31464;SDS011;18089;47.428;15.006;2023-01-13T10:02:55;36.90;;;25.33;;
31464;SDS011;18089;47.428;15.006;2023-01-13T10:05:41;39.13;;;27.83;;
31464;SDS011;18089;47.428;15.006;2023-01-13T10:08:16;41.13;;;28.47;;
31464;SDS011;18089;47.428;15.006;2023-01-13T10:10:52;40.20;;;29.63;;
31464;SDS011;18089;47.428;15.006;2023-01-13T10:13:26;40.50;;;30.80;;
31464;SDS011;18089;47.428;15.006;2023-01-13T10:16:15;35.40;;;27.43;;
31464;SDS011;18089;47.428;15.006;2023-01-13T10:18:59;39.53;;;28.17;;
31464;SDS011;18089;47.428;15.006;2023-01-13T10:21:45;31.63;;;25.60;;
31464;SDS011;18089;47.428;15.006;2023-01-13T10:27:49;26.20;;;22.37;;
31464;SDS011;18089;47.428;15.006;2023-01-13T10:30:24;28.30;;;23.03;;
31464;SDS011;18089;47.428;15.006;2023-01-13T10:33:07;26.80;;;23.60;;
31464;SDS011;18089;47.428;15.006;2023-01-13T10:35:48;25.00;;;21.17;;
31464;SDS011;18089;47.428;15.006;2023-01-13T10:38:26;24.57;;;21.23;;
31464;SDS011;18089;47.428;15.006;2023-01-13T10:40:59;25.43;;;20.17;;
31464;SDS011;18089;47.428;15.006;2023-01-13T10:43:33;20.57;;;18.27;;
31464;SDS011;18089;47.428;15.006;2023-01-13T10:46:05;29.00;;;20.73;;
31464;SDS011;18089;47.428;15.006;2023-01-13T10:48:42;20.02;;;17.00;;
31464;SDS011;18089;47.428;15.006;2023-01-13T10:51:19;20.00;;;15.45;;
31464;SDS011;18089;47.428;15.006;2023-01-13T10:53:54;21.67;;;16.70;;
31464;SDS011;18089;47.428;15.006;2023-01-13T10:56:29;15.30;;;13.73;;
31464;SDS011;18089;47.428;15.006;2023-01-13T10:59:10;16.50;;;14.38;;
31464;SDS011;18089;47.428;15.006;2023-01-13T11:01:53;15.30;;;13.68;;
31464;SDS011;18089;47.428;15.006;2023-01-13T11:04:30;18.13;;;14.40;;
31464;SDS011;18089;47.428;15.006;2023-01-13T11:07:04;13.05;;;11.85;;
31464;SDS011;18089;47.428;15.006;2023-01-13T11:09:46;11.60;;;10.40;;
31464;SDS011;18089;47.428;15.006;2023-01-13T11:12:28;11.32;;;10.25;;
31464;SDS011;18089;47.428;15.006;2023-01-13T11:15:02;12.93;;;11.25;;
31464;SDS011;18089;47.428;15.006;2023-01-13T11:17:38;11.70;;;10.40;;
31464;SDS011;18089;47.428;15.006;2023-01-13T11:20:18;12.57;;;11.43;;
31464;SDS011;18089;47.428;15.006;2023-01-13T11:22:52;17.85;;;12.35;;
31464;SDS011;18089;47.428;15.006;2023-01-13T11:25:26;14.60;;;10.77;;
31464;SDS011;18089;47.428;15.006;2023-01-13T11:28:03;11.80;;;10.73;;
31464;SDS011;18089;47.428;15.006;2023-01-13T11:30:41;13.25;;;12.05;;
31464;SDS011;18089;47.428;15.006;2023-01-13T11:33:27;11.85;;;10.82;;
31464;SDS011;18089;47.428;15.006;2023-01-13T11:36:07;11.02;;;10.13;;
31464;SDS011;18089;47.428;15.006;2023-01-13T11:38:43;12.10;;;10.90;;
31464;SDS011;18089;47.428;15.006;2023-01-13T11:41:24;11.95;;;10.93;;
31464;SDS011;18089;47.428;15.006;2023-01-13T11:44:03;11.05;;;10.05;;
31464;SDS011;18089;47.428;15.006;2023-01-13T11:46:41;11.43;;;10.43;;
31464;SDS011;18089;47.428;15.006;2023-01-13T11:49:15;11.60;;;10.18;;
31464;SDS011;18089;47.428;15.006;2023-01-13T11:51:56;10.52;;;9.65;;
31464;SDS011;18089;47.428;15.006;2023-01-13T11:54:40;11.48;;;10.38;;
31464;SDS011;18089;47.428;15.006;2023-01-13T11:57:25;13.73;;;10.55;;
31464;SDS011;18089;47.428;15.006;2023-01-13T12:00:16;11.43;;;10.45;;
31464;SDS011;18089;47.428;15.006;2023-01-13T12:02:55;11.25;;;10.10;;
31464;SDS011;18089;47.428;15.006;2023-01-13T12:05:33;10.95;;;9.45;;
31464;SDS011;18089;47.428;15.006;2023-01-13T12:08:19;10.13;;;9.23;;
31464;SDS011;18089;47.428;15.006;2023-01-13T12:10:58;11.38;;;9.80;;
31464;SDS011;18089;47.428;15.006;2023-01-13T12:13:44;10.70;;;9.70;;
31464;SDS011;18089;47.428;15.006;2023-01-13T12:16:22;10.48;;;9.50;;
31464;SDS011;18089;47.428;15.006;2023-01-13T12:24:46;10.48;;;9.57;;
31464;SDS011;18089;47.428;15.006;2023-01-13T12:27:22;11.73;;;10.43;;
31464;SDS011;18089;47.428;15.006;2023-01-13T12:29:57;10.43;;;9.52;;
31464;SDS011;18089;47.428;15.006;2023-01-13T12:32:33;12.63;;;11.32;;
31464;SDS011;18089;47.428;15.006;2023-01-13T12:35:13;12.02;;;10.93;;
31464;SDS011;18089;47.428;15.006;2023-01-13T12:37:51;11.90;;;10.80;;
31464;SDS011;18089;47.428;15.006;2023-01-13T12:40:32;11.75;;;10.10;;
31464;SDS011;18089;47.428;15.006;2023-01-13T12:43:14;11.10;;;9.88;;
31464;SDS011;18089;47.428;15.006;2023-01-13T12:49:15;12.33;;;11.00;;
31464;SDS011;18089;47.428;15.006;2023-01-13T12:55:00;13.03;;;11.67;;
31464;SDS011;18089;47.428;15.006;2023-01-13T12:57:40;18.38;;;11.80;;
31464;SDS011;18089;47.428;15.006;2023-01-13T13:00:30;12.23;;;11.02;;
31464;SDS011;18089;47.428;15.006;2023-01-13T13:03:25;11.80;;;10.63;;
31464;SDS011;18089;47.428;15.006;2023-01-13T13:06:02;12.50;;;11.30;;
31464;SDS011;18089;47.428;15.006;2023-01-13T13:08:43;12.10;;;11.00;;
31464;SDS011;18089;47.428;15.006;2023-01-13T13:11:34;12.20;;;11.00;;
31464;SDS011;18089;47.428;15.006;2023-01-13T13:17:38;11.38;;;10.48;;
31464;SDS011;18089;47.428;15.006;2023-01-13T13:23:39;12.82;;;10.90;;
31464;SDS011;18089;47.428;15.006;2023-01-13T13:26:39;12.20;;;11.10;;
31464;SDS011;18089;47.428;15.006;2023-01-13T13:29:21;12.35;;;11.30;;
31464;SDS011;18089;47.428;15.006;2023-01-13T13:35:34;10.27;;;9.57;;
31464;SDS011;18089;47.428;15.006;2023-01-13T13:38:15;11.63;;;10.63;;
31464;SDS011;18089;47.428;15.006;2023-01-13T13:41:10;12.88;;;11.70;;
31464;SDS011;18089;47.428;15.006;2023-01-13T13:44:01;14.95;;;13.40;;
31464;SDS011;18089;47.428;15.006;2023-01-13T13:46:59;15.18;;;13.57;;
31464;SDS011;18089;47.428;15.006;2023-01-13T13:49:36;14.80;;;13.30;;
31464;SDS011;18089;47.428;15.006;2023-01-13T13:52:15;13.85;;;11.88;;
31464;SDS011;18089;47.428;15.006;2023-01-13T13:54:50;13.02;;;11.50;;
31464;SDS011;18089;47.428;15.006;2023-01-13T13:57:25;12.13;;;11.02;;
31464;SDS011;18089;47.428;15.006;2023-01-13T14:00:18;12.90;;;11.65;;
31464;SDS011;18089;47.428;15.006;2023-01-13T14:02:53;13.00;;;11.77;;
31464;SDS011;18089;47.428;15.006;2023-01-13T14:05:28;12.68;;;11.45;;
31464;SDS011;18089;47.428;15.006;2023-01-13T14:08:09;15.93;;;13.55;;
31464;SDS011;18089;47.428;15.006;2023-01-13T14:10:45;16.70;;;14.13;;
31464;SDS011;18089;47.428;15.006;2023-01-13T14:13:19;23.98;;;16.67;;
31464;SDS011;18089;47.428;15.006;2023-01-13T14:15:54;23.55;;;17.55;;
31464;SDS011;18089;47.428;15.006;2023-01-13T14:18:27;25.65;;;16.98;;
31464;SDS011;18089;47.428;15.006;2023-01-13T14:21:02;19.77;;;15.40;;
31464;SDS011;18089;47.428;15.006;2023-01-13T14:23:36;20.67;;;15.27;;
31464;SDS011;18089;47.428;15.006;2023-01-13T14:26:09;20.60;;;16.10;;
31464;SDS011;18089;47.428;15.006;2023-01-13T14:28:42;20.63;;;15.75;;
31464;SDS011;18089;47.428;15.006;2023-01-13T14:31:14;21.38;;;15.38;;
31464;SDS011;18089;47.428;15.006;2023-01-13T14:33:47;24.03;;;17.30;;
31464;SDS011;18089;47.428;15.006;2023-01-13T14:36:20;24.73;;;19.97;;
31464;SDS011;18089;47.428;15.006;2023-01-13T14:42:02;26.08;;;19.45;;
31464;SDS011;18089;47.428;15.006;2023-01-13T14:44:34;25.23;;;20.30;;
31464;SDS011;18089;47.428;15.006;2023-01-13T14:47:16;27.02;;;17.98;;
31464;SDS011;18089;47.428;15.006;2023-01-13T14:49:51;21.90;;;18.52;;
31464;SDS011;18089;47.428;15.006;2023-01-13T14:52:28;18.93;;;15.47;;
31464;SDS011;18089;47.428;15.006;2023-01-13T15:06:45;77.60;;;40.30;;
31464;SDS011;18089;47.428;15.006;2023-01-13T15:09:20;21.20;;;17.60;;
31464;SDS011;18089;47.428;15.006;2023-01-13T15:11:55;22.90;;;17.37;;
31464;SDS011;18089;47.428;15.006;2023-01-13T15:14:28;23.27;;;18.50;;
31464;SDS011;18089;47.428;15.006;2023-01-13T15:17:04;21.30;;;17.27;;
31464;SDS011;18089;47.428;15.006;2023-01-13T15:19:40;22.37;;;17.37;;
31464;SDS011;18089;47.428;15.006;2023-01-13T15:22:12;20.60;;;18.13;;
31464;SDS011;18089;47.428;15.006;2023-01-13T15:24:44;24.53;;;19.70;;
31464;SDS011;18089;47.428;15.006;2023-01-13T15:27:19;28.23;;;20.67;;
31464;SDS011;18089;47.428;15.006;2023-01-13T15:29:54;28.17;;;21.70;;
31464;SDS011;18089;47.428;15.006;2023-01-13T15:32:26;36.20;;;26.10;;
31464;SDS011;18089;47.428;15.006;2023-01-13T15:34:58;40.23;;;25.57;;
31464;SDS011;18089;47.428;15.006;2023-01-13T15:37:30;33.83;;;23.43;;
31464;SDS011;18089;47.428;15.006;2023-01-13T15:40:03;45.97;;;26.50;;
31464;SDS011;18089;47.428;15.006;2023-01-13T15:42:38;43.40;;;28.23;;
31464;SDS011;18089;47.428;15.006;2023-01-13T15:45:27;52.87;;;31.87;;
31464;SDS011;18089;47.428;15.006;2023-01-13T15:48:16;49.47;;;29.73;;
31464;SDS011;18089;47.428;15.006;2023-01-13T15:50:50;51.20;;;29.47;;